sensor_id;sensor_type;location;lat;lon;timestamp;P1;durP1;ratioP1;P2;durP2;ratioP2
50066;SDS011;35952;52.524;13.340;2023-04-12T00:00:31;5.53;;;3.40;;
50066;SDS011;35952;52.524;13.340;2023-04-12T00:02:57;4.10;;;3.10;;
50066;SDS011;35952;52.524;13.340;2023-04-12T00:05:23;3.63;;;3.23;;
50066;SDS011;35952;52.524;13.340;2023-04-12T00:07:51;3.47;;;3.00;;
50066;SDS011;35952;52.524;13.340;2023-04-12T00:10:17;3.40;;;3.10;;
50066;SDS011;35952;52.524;13.340;2023-04-12T00:12:43;6.13;;;3.40;;
50066;SDS011;35952;52.524;13.340;2023-04-12T00:15:09;4.27;;;3.87;;
50066;SDS011;35952;52.524;13.340;2023-04-12T00:17:34;6.33;;;3.90;;
50066;SDS011;35952;52.524;13.340;2023-04-12T00:20:00;5.20;;;3.57;;
50066;SDS011;35952;52.524;13.340;2023-04-12T00:22:29;4.07;;;3.67;;
50066;SDS011;35952;52.524;13.340;2023-04-12T00:24:54;5.17;;;3.20;;
50066;SDS011;35952;52.524;13.340;2023-04-12T00:27:20;3.63;;;3.20;;
50066;SDS011;35952;52.524;13.340;2023-04-12T00:29:45;3.20;;;2.90;;
50066;SDS011;35952;52.524;13.340;2023-04-12T00:32:11;3.43;;;3.07;;
50066;SDS011;35952;52.524;13.340;2023-04-12T00:34:37;3.57;;;3.00;;
50066;SDS011;35952;52.524;13.340;2023-04-12T00:37:02;4.00;;;3.60;;
50066;SDS011;35952;52.524;13.340;2023-04-12T00:39:28;5.20;;;3.13;;
50066;SDS011;35952;52.524;13.340;2023-04-12T00:41:53;4.67;;;4.10;;
50066;SDS011;35952;52.524;13.340;2023-04-12T00:44:20;3.33;;;3.00;;
50066;SDS011;35952;52.524;13.340;2023-04-12T00:46:47;3.93;;;2.83;;
50066;SDS011;35952;52.524;13.340;2023-04-12T00:49:13;5.53;;;3.40;;
50066;SDS011;35952;52.524;13.340;2023-04-12T00:51:39;4.70;;;3.80;;
50066;SDS011;35952;52.524;13.340;2023-04-12T00:54:05;6.20;;;3.53;;
50066;SDS011;35952;52.524;13.340;2023-04-12T00:56:31;5.87;;;3.40;;
50066;SDS011;35952;52.524;13.340;2023-04-12T00:58:57;5.03;;;3.13;;
50066;SDS011;35952;52.524;13.340;2023-04-12T01:01:23;3.33;;;3.03;;
50066;SDS011;35952;52.524;13.340;2023-04-12T01:03:48;3.73;;;3.40;;
50066;SDS011;35952;52.524;13.340;2023-04-12T01:12:09;5.37;;;3.50;;
50066;SDS011;35952;52.524;13.340;2023-04-12T01:15:06;4.40;;;3.20;;
50066;SDS011;35952;52.524;13.340;2023-04-12T01:17:37;4.70;;;3.87;;
50066;SDS011;35952;52.524;13.340;2023-04-12T01:20:16;3.50;;;3.20;;
50066;SDS011;35952;52.524;13.340;2023-04-12T01:28:45;7.07;;;3.67;;
50066;SDS011;35952;52.524;13.340;2023-04-12T01:31:16;8.50;;;3.70;;
50066;SDS011;35952;52.524;13.340;2023-04-12T01:33:43;3.37;;;2.80;;
50066;SDS011;35952;52.524;13.340;2023-04-12T01:36:12;4.20;;;3.10;;
50066;SDS011;35952;52.524;13.340;2023-04-12T01:38:40;6.20;;;3.57;;
50066;SDS011;35952;52.524;13.340;2023-04-12T01:41:07;6.73;;;3.80;;
50066;SDS011;35952;52.524;13.340;2023-04-12T01:43:34;4.77;;;4.10;;
50066;SDS011;35952;52.524;13.340;2023-04-12T01:46:06;2.80;;;2.60;;
50066;SDS011;35952;52.524;13.340;2023-04-12T01:48:32;4.67;;;4.20;;
50066;SDS011;35952;52.524;13.340;2023-04-12T01:53:34;5.63;;;4.17;;
50066;SDS011;35952;52.524;13.340;2023-04-12T01:56:12;5.60;;;4.00;;
50066;SDS011;35952;52.524;13.340;2023-04-12T01:58:41;5.87;;;4.07;;
50066;SDS011;35952;52.524;13.340;2023-04-12T02:01:08;3.67;;;3.37;;
50066;SDS011;35952;52.524;13.340;2023-04-12T02:03:38;5.27;;;4.27;;
50066;SDS011;35952;52.524;13.340;2023-04-12T02:06:06;5.13;;;4.37;;
50066;SDS011;35952;52.524;13.340;2023-04-12T02:08:33;5.20;;;4.70;;
50066;SDS011;35952;52.524;13.340;2023-04-12T02:10:59;7.50;;;3.70;;
50066;SDS011;35952;52.524;13.340;2023-04-12T02:13:25;5.83;;;3.90;;
50066;SDS011;35952;52.524;13.340;2023-04-12T02:15:50;4.50;;;3.80;;
50066;SDS011;35952;52.524;13.340;2023-04-12T02:18:18;6.37;;;3.63;;
50066;SDS011;35952;52.524;13.340;2023-04-12T02:20:44;13.43;;;4.37;;
50066;SDS011;35952;52.524;13.340;2023-04-12T02:23:10;7.27;;;3.73;;
50066;SDS011;35952;52.524;13.340;2023-04-12T02:25:36;6.83;;;4.30;;
50066;SDS011;35952;52.524;13.340;2023-04-12T02:28:03;4.00;;;3.70;;
50066;SDS011;35952;52.524;13.340;2023-04-12T02:30:30;5.20;;;3.47;;
50066;SDS011;35952;52.524;13.340;2023-04-12T02:32:56;8.00;;;3.87;;
50066;SDS011;35952;52.524;13.340;2023-04-12T02:35:21;6.50;;;4.77;;
50066;SDS011;35952;52.524;13.340;2023-04-12T02:37:48;3.97;;;3.67;;
50066;SDS011;35952;52.524;13.340;2023-04-12T02:40:15;4.30;;;3.90;;
50066;SDS011;35952;52.524;13.340;2023-04-12T02:42:41;5.10;;;4.00;;
50066;SDS011;35952;52.524;13.340;2023-04-12T02:45:07;5.80;;;3.97;;
50066;SDS011;35952;52.524;13.340;2023-04-12T02:47:34;5.40;;;4.67;;
50066;SDS011;35952;52.524;13.340;2023-04-12T02:50:00;4.60;;;4.20;;
50066;SDS011;35952;52.524;13.340;2023-04-12T02:52:26;4.60;;;4.20;;
50066;SDS011;35952;52.524;13.340;2023-04-12T02:54:53;5.37;;;4.43;;
50066;SDS011;35952;52.524;13.340;2023-04-12T02:57:20;6.80;;;4.70;;
50066;SDS011;35952;52.524;13.340;2023-04-12T02:59:45;5.13;;;4.10;;
50066;SDS011;35952;52.524;13.340;2023-04-12T03:02:11;4.97;;;4.57;;
50066;SDS011;35952;52.524;13.340;2023-04-12T03:04:37;5.20;;;4.50;;
50066;SDS011;35952;52.524;13.340;2023-04-12T03:07:04;6.47;;;4.00;;
50066;SDS011;35952;52.524;13.340;2023-04-12T03:09:30;7.80;;;5.00;;
50066;SDS011;35952;52.524;13.340;2023-04-12T03:11:56;6.70;;;4.50;;
50066;SDS011;35952;52.524;13.340;2023-04-12T03:14:22;10.10;;;4.60;;
50066;SDS011;35952;52.524;13.340;2023-04-12T03:16:47;6.43;;;4.40;;
50066;SDS011;35952;52.524;13.340;2023-04-12T03:19:15;4.90;;;4.50;;
50066;SDS011;35952;52.524;13.340;2023-04-12T03:21:40;6.03;;;4.63;;
50066;SDS011;35952;52.524;13.340;2023-04-12T03:24:06;5.17;;;4.67;;
50066;SDS011;35952;52.524;13.340;2023-04-12T03:26:32;10.00;;;5.10;;
50066;SDS011;35952;52.524;13.340;2023-04-12T03:28:59;7.33;;;5.70;;
50066;SDS011;35952;52.524;13.340;2023-04-12T03:31:25;9.40;;;5.40;;
50066;SDS011;35952;52.524;13.340;2023-04-12T03:33:52;6.17;;;5.60;;
50066;SDS011;35952;52.524;13.340;2023-04-12T03:36:18;5.73;;;5.00;;
50066;SDS011;35952;52.524;13.340;2023-04-12T03:38:45;6.43;;;5.60;;
50066;SDS011;35952;52.524;13.340;2023-04-12T03:41:11;7.97;;;5.93;;
50066;SDS011;35952;52.524;13.340;2023-04-12T03:43:36;6.90;;;4.77;;
50066;SDS011;35952;52.524;13.340;2023-04-12T03:46:02;9.07;;;5.80;;
50066;SDS011;35952;52.524;13.340;2023-04-12T03:48:28;6.93;;;5.03;;
50066;SDS011;35952;52.524;13.340;2023-04-12T03:50:54;8.30;;;6.20;;
50066;SDS011;35952;52.524;13.340;2023-04-12T03:53:23;5.90;;;5.40;;
50066;SDS011;35952;52.524;13.340;2023-04-12T03:55:51;7.47;;;5.20;;
50066;SDS011;35952;52.524;13.340;2023-04-12T03:58:18;5.83;;;5.20;;
50066;SDS011;35952;52.524;13.340;2023-04-12T04:00:44;5.67;;;4.90;;
50066;SDS011;35952;52.524;13.340;2023-04-12T04:03:10;6.50;;;4.40;;
50066;SDS011;35952;52.524;13.340;2023-04-12T04:05:36;5.60;;;4.70;;
50066;SDS011;35952;52.524;13.340;2023-04-12T04:08:02;6.77;;;5.20;;
50066;SDS011;35952;52.524;13.340;2023-04-12T04:10:30;13.33;;;5.13;;
50066;SDS011;35952;52.524;13.340;2023-04-12T04:12:56;5.50;;;4.97;;
50066;SDS011;35952;52.524;13.340;2023-04-12T04:15:21;6.10;;;4.63;;
50066;SDS011;35952;52.524;13.340;2023-04-12T04:17:49;10.63;;;5.63;;
50066;SDS011;35952;52.524;13.340;2023-04-12T04:20:14;8.90;;;6.07;;
50066;SDS011;35952;52.524;13.340;2023-04-12T04:22:42;5.17;;;4.67;;
50066;SDS011;35952;52.524;13.340;2023-04-12T04:25:08;6.90;;;5.13;;
50066;SDS011;35952;52.524;13.340;2023-04-12T04:27:34;7.33;;;5.40;;
50066;SDS011;35952;52.524;13.340;2023-04-12T04:30:02;6.37;;;5.70;;
50066;SDS011;35952;52.524;13.340;2023-04-12T04:32:30;6.63;;;5.37;;
50066;SDS011;35952;52.524;13.340;2023-04-12T04:34:56;7.00;;;4.80;;
50066;SDS011;35952;52.524;13.340;2023-04-12T04:37:23;7.00;;;5.60;;
50066;SDS011;35952;52.524;13.340;2023-04-12T04:39:50;13.13;;;7.00;;
50066;SDS011;35952;52.524;13.340;2023-04-12T04:42:15;6.93;;;5.70;;
50066;SDS011;35952;52.524;13.340;2023-04-12T04:44:41;11.77;;;6.40;;
50066;SDS011;35952;52.524;13.340;2023-04-12T04:47:07;8.27;;;5.83;;
50066;SDS011;35952;52.524;13.340;2023-04-12T04:49:33;7.77;;;6.67;;
50066;SDS011;35952;52.524;13.340;2023-04-12T04:52:00;8.37;;;7.43;;
50066;SDS011;35952;52.524;13.340;2023-04-12T04:54:26;6.30;;;5.70;;
50066;SDS011;35952;52.524;13.340;2023-04-12T04:56:52;8.67;;;6.30;;
50066;SDS011;35952;52.524;13.340;2023-04-12T04:59:18;7.50;;;5.57;;
50066;SDS011;35952;52.524;13.340;2023-04-12T05:01:44;9.00;;;7.10;;
50066;SDS011;35952;52.524;13.340;2023-04-12T05:04:10;6.00;;;5.40;;
50066;SDS011;35952;52.524;13.340;2023-04-12T05:06:35;7.57;;;5.90;;
50066;SDS011;35952;52.524;13.340;2023-04-12T05:09:01;8.63;;;5.87;;
50066;SDS011;35952;52.524;13.340;2023-04-12T05:11:26;11.00;;;6.60;;
50066;SDS011;35952;52.524;13.340;2023-04-12T05:13:52;5.20;;;4.70;;
50066;SDS011;35952;52.524;13.340;2023-04-12T05:16:18;7.60;;;5.47;;
50066;SDS011;35952;52.524;13.340;2023-04-12T05:18:43;5.73;;;5.13;;
50066;SDS011;35952;52.524;13.340;2023-04-12T05:21:09;7.37;;;5.13;;
50066;SDS011;35952;52.524;13.340;2023-04-12T05:23:35;6.33;;;5.10;;
50066;SDS011;35952;52.524;13.340;2023-04-12T05:26:01;9.37;;;5.40;;
50066;SDS011;35952;52.524;13.340;2023-04-12T05:28:27;7.10;;;4.40;;
50066;SDS011;35952;52.524;13.340;2023-04-12T05:30:53;8.47;;;5.10;;
50066;SDS011;35952;52.524;13.340;2023-04-12T05:33:18;8.90;;;4.57;;
50066;SDS011;35952;52.524;13.340;2023-04-12T05:35:44;7.50;;;4.70;;
50066;SDS011;35952;52.524;13.340;2023-04-12T05:38:10;8.53;;;4.90;;
50066;SDS011;35952;52.524;13.340;2023-04-12T05:40:35;6.90;;;5.57;;
50066;SDS011;35952;52.524;13.340;2023-04-12T05:43:01;11.93;;;6.10;;
50066;SDS011;35952;52.524;13.340;2023-04-12T05:45:27;6.10;;;5.20;;
50066;SDS011;35952;52.524;13.340;2023-04-12T05:47:53;6.17;;;5.57;;
50066;SDS011;35952;52.524;13.340;2023-04-12T05:50:19;7.00;;;5.63;;
50066;SDS011;35952;52.524;13.340;2023-04-12T05:52:45;6.77;;;5.57;;
50066;SDS011;35952;52.524;13.340;2023-04-12T05:55:12;6.50;;;5.30;;
50066;SDS011;35952;52.524;13.340;2023-04-12T05:57:38;9.10;;;5.50;;
50066;SDS011;35952;52.524;13.340;2023-04-12T06:00:04;5.67;;;5.10;;
50066;SDS011;35952;52.524;13.340;2023-04-12T06:02:43;10.33;;;5.97;;
50066;SDS011;35952;52.524;13.340;2023-04-12T06:05:09;6.90;;;5.67;;
50066;SDS011;35952;52.524;13.340;2023-04-12T06:07:35;9.07;;;5.90;;
50066;SDS011;35952;52.524;13.340;2023-04-12T06:10:03;6.37;;;5.47;;
50066;SDS011;35952;52.524;13.340;2023-04-12T06:12:29;8.10;;;6.60;;
50066;SDS011;35952;52.524;13.340;2023-04-12T06:14:54;8.77;;;5.87;;
50066;SDS011;35952;52.524;13.340;2023-04-12T06:17:20;6.77;;;6.07;;
50066;SDS011;35952;52.524;13.340;2023-04-12T06:19:46;6.57;;;5.50;;
50066;SDS011;35952;52.524;13.340;2023-04-12T06:22:11;5.80;;;5.10;;
50066;SDS011;35952;52.524;13.340;2023-04-12T06:24:37;7.83;;;5.73;;
50066;SDS011;35952;52.524;13.340;2023-04-12T06:27:02;7.00;;;5.13;;
50066;SDS011;35952;52.524;13.340;2023-04-12T06:29:28;5.93;;;4.87;;
50066;SDS011;35952;52.524;13.340;2023-04-12T06:31:53;6.93;;;5.10;;
50066;SDS011;35952;52.524;13.340;2023-04-12T06:34:19;4.80;;;4.40;;
50066;SDS011;35952;52.524;13.340;2023-04-12T06:36:44;6.23;;;4.57;;
50066;SDS011;35952;52.524;13.340;2023-04-12T06:39:11;6.83;;;4.20;;
50066;SDS011;35952;52.524;13.340;2023-04-12T06:41:37;7.63;;;4.20;;
50066;SDS011;35952;52.524;13.340;2023-04-12T06:44:02;7.40;;;4.20;;
50066;SDS011;35952;52.524;13.340;2023-04-12T06:46:28;5.77;;;5.20;;
50066;SDS011;35952;52.524;13.340;2023-04-12T06:48:53;4.90;;;4.40;;
50066;SDS011;35952;52.524;13.340;2023-04-12T06:51:19;5.67;;;5.03;;
50066;SDS011;35952;52.524;13.340;2023-04-12T06:53:44;6.47;;;5.43;;
50066;SDS011;35952;52.524;13.340;2023-04-12T06:56:10;5.97;;;4.57;;
50066;SDS011;35952;52.524;13.340;2023-04-12T06:58:35;5.87;;;4.40;;
50066;SDS011;35952;52.524;13.340;2023-04-12T07:01:07;7.17;;;4.67;;
50066;SDS011;35952;52.524;13.340;2023-04-12T07:03:34;4.73;;;4.20;;
50066;SDS011;35952;52.524;13.340;2023-04-12T07:06:00;17.30;;;3.97;;
50066;SDS011;35952;52.524;13.340;2023-04-12T07:08:33;7.00;;;3.80;;
50066;SDS011;35952;52.524;13.340;2023-04-12T07:11:00;7.07;;;4.40;;
50066;SDS011;35952;52.524;13.340;2023-04-12T07:13:25;3.50;;;2.70;;
50066;SDS011;35952;52.524;13.340;2023-04-12T07:15:51;3.87;;;3.50;;
50066;SDS011;35952;52.524;13.340;2023-04-12T07:18:18;5.43;;;3.70;;
50066;SDS011;35952;52.524;13.340;2023-04-12T07:20:45;4.70;;;3.50;;
50066;SDS011;35952;52.524;13.340;2023-04-12T07:23:12;4.50;;;4.10;;
50066;SDS011;35952;52.524;13.340;2023-04-12T07:25:37;7.20;;;3.63;;
50066;SDS011;35952;52.524;13.340;2023-04-12T07:28:03;10.60;;;3.57;;
50066;SDS011;35952;52.524;13.340;2023-04-12T07:30:29;7.33;;;4.10;;
50066;SDS011;35952;52.524;13.340;2023-04-12T07:32:55;6.23;;;3.47;;
50066;SDS011;35952;52.524;13.340;2023-04-12T07:35:20;5.00;;;3.77;;
50066;SDS011;35952;52.524;13.340;2023-04-12T07:37:46;6.90;;;3.47;;
50066;SDS011;35952;52.524;13.340;2023-04-12T07:40:11;5.20;;;3.80;;
50066;SDS011;35952;52.524;13.340;2023-04-12T07:42:37;4.07;;;3.63;;
50066;SDS011;35952;52.524;13.340;2023-04-12T07:45:03;4.67;;;3.57;;
50066;SDS011;35952;52.524;13.340;2023-04-12T07:47:28;3.73;;;3.27;;
50066;SDS011;35952;52.524;13.340;2023-04-12T07:49:54;4.67;;;3.10;;
50066;SDS011;35952;52.524;13.340;2023-04-12T07:52:21;6.07;;;3.80;;
50066;SDS011;35952;52.524;13.340;2023-04-12T07:54:46;6.20;;;4.20;;
50066;SDS011;35952;52.524;13.340;2023-04-12T07:57:12;4.30;;;3.37;;
50066;SDS011;35952;52.524;13.340;2023-04-12T07:59:37;5.50;;;3.67;;
50066;SDS011;35952;52.524;13.340;2023-04-12T08:02:03;4.20;;;3.07;;
50066;SDS011;35952;52.524;13.340;2023-04-12T08:04:30;3.60;;;3.30;;
50066;SDS011;35952;52.524;13.340;2023-04-12T08:06:55;3.70;;;2.60;;
50066;SDS011;35952;52.524;13.340;2023-04-12T08:09:21;4.83;;;2.77;;
50066;SDS011;35952;52.524;13.340;2023-04-12T08:11:47;3.67;;;2.50;;
50066;SDS011;35952;52.524;13.340;2023-04-12T08:14:13;3.90;;;3.07;;
50066;SDS011;35952;52.524;13.340;2023-04-12T08:16:39;7.07;;;2.97;;
50066;SDS011;35952;52.524;13.340;2023-04-12T08:19:04;7.23;;;2.73;;
50066;SDS011;35952;52.524;13.340;2023-04-12T08:21:30;5.47;;;2.73;;
50066;SDS011;35952;52.524;13.340;2023-04-12T08:23:56;3.53;;;2.90;;
50066;SDS011;35952;52.524;13.340;2023-04-12T08:26:22;3.97;;;2.47;;
50066;SDS011;35952;52.524;13.340;2023-04-12T08:28:47;3.67;;;2.27;;
50066;SDS011;35952;52.524;13.340;2023-04-12T08:31:13;3.10;;;2.10;;
50066;SDS011;35952;52.524;13.340;2023-04-12T08:33:39;2.13;;;1.60;;
50066;SDS011;35952;52.524;13.340;2023-04-12T08:36:05;4.00;;;2.37;;
50066;SDS011;35952;52.524;13.340;2023-04-12T08:38:31;4.53;;;2.73;;
50066;SDS011;35952;52.524;13.340;2023-04-12T08:40:57;2.47;;;1.70;;
50066;SDS011;35952;52.524;13.340;2023-04-12T08:43:23;3.30;;;2.60;;
50066;SDS011;35952;52.524;13.340;2023-04-12T08:45:52;5.27;;;1.90;;
50066;SDS011;35952;52.524;13.340;2023-04-12T08:48:19;2.27;;;1.90;;
50066;SDS011;35952;52.524;13.340;2023-04-12T08:50:46;6.40;;;2.20;;
50066;SDS011;35952;52.524;13.340;2023-04-12T08:53:13;5.70;;;4.80;;
50066;SDS011;35952;52.524;13.340;2023-04-12T08:55:42;2.13;;;1.90;;
50066;SDS011;35952;52.524;13.340;2023-04-12T08:58:09;6.77;;;2.20;;
50066;SDS011;35952;52.524;13.340;2023-04-12T09:00:35;4.03;;;1.77;;
50066;SDS011;35952;52.524;13.340;2023-04-12T09:03:02;2.43;;;1.60;;
50066;SDS011;35952;52.524;13.340;2023-04-12T09:05:28;6.27;;;2.37;;
50066;SDS011;35952;52.524;13.340;2023-04-12T09:07:55;5.00;;;2.07;;
50066;SDS011;35952;52.524;13.340;2023-04-12T09:12:56;3.53;;;1.80;;
50066;SDS011;35952;52.524;13.340;2023-04-12T09:15:22;3.23;;;2.07;;
50066;SDS011;35952;52.524;13.340;2023-04-12T09:17:48;5.57;;;2.83;;
50066;SDS011;35952;52.524;13.340;2023-04-12T09:22:42;2.03;;;1.70;;
50066;SDS011;35952;52.524;13.340;2023-04-12T09:25:09;4.47;;;2.03;;
50066;SDS011;35952;52.524;13.340;2023-04-12T09:27:48;4.40;;;2.13;;
50066;SDS011;35952;52.524;13.340;2023-04-12T09:30:15;2.30;;;2.10;;
50066;SDS011;35952;52.524;13.340;2023-04-12T09:32:41;4.53;;;2.23;;
50066;SDS011;35952;52.524;13.340;2023-04-12T09:35:08;3.67;;;2.00;;
50066;SDS011;35952;52.524;13.340;2023-04-12T09:37:33;3.00;;;2.03;;
50066;SDS011;35952;52.524;13.340;2023-04-12T09:39:59;4.90;;;2.10;;
50066;SDS011;35952;52.524;13.340;2023-04-12T09:42:26;8.20;;;2.87;;
50066;SDS011;35952;52.524;13.340;2023-04-12T09:44:52;3.33;;;1.87;;
50066;SDS011;35952;52.524;13.340;2023-04-12T09:47:18;2.77;;;1.97;;
50066;SDS011;35952;52.524;13.340;2023-04-12T09:49:44;3.63;;;2.53;;
50066;SDS011;35952;52.524;13.340;2023-04-12T09:52:10;4.30;;;1.77;;
50066;SDS011;35952;52.524;13.340;2023-04-12T09:57:10;2.47;;;2.27;;
50066;SDS011;35952;52.524;13.340;2023-04-12T09:59:37;2.50;;;2.30;;
50066;SDS011;35952;52.524;13.340;2023-04-12T10:02:05;3.60;;;2.30;;
50066;SDS011;35952;52.524;13.340;2023-04-12T10:04:35;2.27;;;1.77;;
50066;SDS011;35952;52.524;13.340;2023-04-12T10:07:04;2.40;;;2.00;;
50066;SDS011;35952;52.524;13.340;2023-04-12T10:09:31;3.67;;;2.20;;
50066;SDS011;35952;52.524;13.340;2023-04-12T10:11:57;6.47;;;2.97;;
50066;SDS011;35952;52.524;13.340;2023-04-12T10:14:23;3.93;;;2.23;;
50066;SDS011;35952;52.524;13.340;2023-04-12T10:16:51;6.73;;;2.90;;
50066;SDS011;35952;52.524;13.340;2023-04-12T10:19:21;7.80;;;2.67;;
50066;SDS011;35952;52.524;13.340;2023-04-12T10:21:49;2.93;;;2.00;;
50066;SDS011;35952;52.524;13.340;2023-04-12T10:24:14;4.27;;;2.37;;
50066;SDS011;35952;52.524;13.340;2023-04-12T10:26:41;3.37;;;2.00;;
50066;SDS011;35952;52.524;13.340;2023-04-12T10:29:20;3.73;;;2.30;;
50066;SDS011;35952;52.524;13.340;2023-04-12T10:31:57;2.53;;;2.20;;
50066;SDS011;35952;52.524;13.340;2023-04-12T10:34:42;4.90;;;2.20;;
50066;SDS011;35952;52.524;13.340;2023-04-12T10:37:07;1.77;;;1.63;;
50066;SDS011;35952;52.524;13.340;2023-04-12T10:39:40;2.63;;;2.10;;
50066;SDS011;35952;52.524;13.340;2023-04-12T10:42:18;10.50;;;2.97;;
50066;SDS011;35952;52.524;13.340;2023-04-12T10:44:44;3.60;;;2.03;;
50066;SDS011;35952;52.524;13.340;2023-04-12T10:47:10;3.90;;;2.00;;
50066;SDS011;35952;52.524;13.340;2023-04-12T10:49:35;3.33;;;2.20;;
50066;SDS011;35952;52.524;13.340;2023-04-12T10:54:34;5.40;;;2.63;;
50066;SDS011;35952;52.524;13.340;2023-04-12T10:57:01;2.60;;;2.20;;
50066;SDS011;35952;52.524;13.340;2023-04-12T11:02:20;7.53;;;2.77;;
50066;SDS011;35952;52.524;13.340;2023-04-12T11:05:08;3.87;;;2.20;;
50066;SDS011;35952;52.524;13.340;2023-04-12T11:07:41;4.50;;;2.50;;
50066;SDS011;35952;52.524;13.340;2023-04-12T11:10:16;6.17;;;2.47;;
50066;SDS011;35952;52.524;13.340;2023-04-12T11:12:48;2.50;;;2.23;;
50066;SDS011;35952;52.524;13.340;2023-04-12T11:15:16;3.00;;;2.40;;
50066;SDS011;35952;52.524;13.340;2023-04-12T11:17:42;4.17;;;2.60;;
50066;SDS011;35952;52.524;13.340;2023-04-12T11:20:21;3.50;;;2.10;;
50066;SDS011;35952;52.524;13.340;2023-04-12T11:22:46;4.73;;;2.53;;
50066;SDS011;35952;52.524;13.340;2023-04-12T11:25:15;5.43;;;2.40;;
50066;SDS011;35952;52.524;13.340;2023-04-12T11:27:47;3.83;;;1.83;;
50066;SDS011;35952;52.524;13.340;2023-04-12T11:30:15;4.37;;;2.30;;
50066;SDS011;35952;52.524;13.340;2023-04-12T11:32:43;5.27;;;3.33;;
50066;SDS011;35952;52.524;13.340;2023-04-12T11:35:09;2.90;;;2.33;;
50066;SDS011;35952;52.524;13.340;2023-04-12T11:37:35;2.03;;;1.70;;
50066;SDS011;35952;52.524;13.340;2023-04-12T11:40:02;4.63;;;2.27;;
50066;SDS011;35952;52.524;13.340;2023-04-12T11:42:31;4.00;;;2.17;;
50066;SDS011;35952;52.524;13.340;2023-04-12T11:44:57;2.67;;;1.70;;
50066;SDS011;35952;52.524;13.340;2023-04-12T11:47:23;9.00;;;2.20;;
50066;SDS011;35952;52.524;13.340;2023-04-12T11:49:56;5.83;;;2.20;;
50066;SDS011;35952;52.524;13.340;2023-04-12T11:52:31;2.67;;;2.23;;
50066;SDS011;35952;52.524;13.340;2023-04-12T11:55:03;4.50;;;2.20;;
50066;SDS011;35952;52.524;13.340;2023-04-12T11:57:30;6.23;;;3.90;;
50066;SDS011;35952;52.524;13.340;2023-04-12T11:59:56;4.43;;;2.30;;
50066;SDS011;35952;52.524;13.340;2023-04-12T12:02:26;4.20;;;2.20;;
50066;SDS011;35952;52.524;13.340;2023-04-12T12:04:51;4.30;;;2.20;;
50066;SDS011;35952;52.524;13.340;2023-04-12T12:07:20;5.33;;;2.90;;
50066;SDS011;35952;52.524;13.340;2023-04-12T12:09:46;4.93;;;3.50;;
50066;SDS011;35952;52.524;13.340;2023-04-12T12:12:13;4.63;;;3.80;;
50066;SDS011;35952;52.524;13.340;2023-04-12T12:14:40;4.87;;;2.80;;
50066;SDS011;35952;52.524;13.340;2023-04-12T12:17:11;5.80;;;2.40;;
50066;SDS011;35952;52.524;13.340;2023-04-12T12:19:38;6.07;;;2.50;;
50066;SDS011;35952;52.524;13.340;2023-04-12T12:22:06;10.27;;;5.53;;
50066;SDS011;35952;52.524;13.340;2023-04-12T12:24:38;3.33;;;2.33;;
50066;SDS011;35952;52.524;13.340;2023-04-12T12:27:09;4.60;;;2.90;;
50066;SDS011;35952;52.524;13.340;2023-04-12T12:29:35;3.13;;;2.30;;
50066;SDS011;35952;52.524;13.340;2023-04-12T12:32:01;3.27;;;2.17;;
50066;SDS011;35952;52.524;13.340;2023-04-12T12:34:33;4.67;;;2.90;;
50066;SDS011;35952;52.524;13.340;2023-04-12T12:36:59;3.97;;;2.53;;
50066;SDS011;35952;52.524;13.340;2023-04-12T12:39:25;3.77;;;2.50;;
50066;SDS011;35952;52.524;13.340;2023-04-12T12:41:54;5.87;;;2.00;;
50066;SDS011;35952;52.524;13.340;2023-04-12T12:44:21;4.63;;;2.20;;
50066;SDS011;35952;52.524;13.340;2023-04-12T12:46:48;3.60;;;2.80;;
50066;SDS011;35952;52.524;13.340;2023-04-12T12:49:13;2.30;;;2.10;;
50066;SDS011;35952;52.524;13.340;2023-04-12T12:51:40;4.13;;;2.50;;
50066;SDS011;35952;52.524;13.340;2023-04-12T12:54:06;2.33;;;1.80;;
50066;SDS011;35952;52.524;13.340;2023-04-12T12:56:31;3.43;;;2.80;;
50066;SDS011;35952;52.524;13.340;2023-04-12T12:58:59;2.30;;;2.10;;
50066;SDS011;35952;52.524;13.340;2023-04-12T13:01:25;5.80;;;2.10;;
50066;SDS011;35952;52.524;13.340;2023-04-12T13:03:51;5.90;;;2.87;;
50066;SDS011;35952;52.524;13.340;2023-04-12T13:06:17;3.87;;;2.67;;
50066;SDS011;35952;52.524;13.340;2023-04-12T13:08:42;3.13;;;2.80;;
50066;SDS011;35952;52.524;13.340;2023-04-12T13:11:08;3.53;;;2.40;;
50066;SDS011;35952;52.524;13.340;2023-04-12T13:13:33;5.03;;;3.10;;
50066;SDS011;35952;52.524;13.340;2023-04-12T13:15:58;5.40;;;2.50;;
50066;SDS011;35952;52.524;13.340;2023-04-12T13:18:24;2.50;;;2.30;;
50066;SDS011;35952;52.524;13.340;2023-04-12T13:20:49;3.23;;;2.40;;
50066;SDS011;35952;52.524;13.340;2023-04-12T13:23:15;5.93;;;2.73;;
50066;SDS011;35952;52.524;13.340;2023-04-12T13:25:41;7.63;;;1.97;;
50066;SDS011;35952;52.524;13.340;2023-04-12T13:28:07;4.80;;;2.70;;
50066;SDS011;35952;52.524;13.340;2023-04-12T13:30:32;3.07;;;2.20;;
50066;SDS011;35952;52.524;13.340;2023-04-12T13:32:57;4.90;;;2.23;;
50066;SDS011;35952;52.524;13.340;2023-04-12T13:35:23;2.80;;;2.23;;
50066;SDS011;35952;52.524;13.340;2023-04-12T13:37:49;3.03;;;2.20;;
50066;SDS011;35952;52.524;13.340;2023-04-12T13:40:14;4.17;;;2.20;;
50066;SDS011;35952;52.524;13.340;2023-04-12T13:42:40;3.00;;;2.27;;
50066;SDS011;35952;52.524;13.340;2023-04-12T13:45:05;5.13;;;2.80;;
50066;SDS011;35952;52.524;13.340;2023-04-12T13:47:31;6.50;;;4.90;;
50066;SDS011;35952;52.524;13.340;2023-04-12T13:49:57;3.53;;;2.10;;
50066;SDS011;35952;52.524;13.340;2023-04-12T13:52:26;3.03;;;2.33;;
50066;SDS011;35952;52.524;13.340;2023-04-12T13:54:52;4.83;;;2.40;;
50066;SDS011;35952;52.524;13.340;2023-04-12T13:57:17;2.90;;;2.40;;
50066;SDS011;35952;52.524;13.340;2023-04-12T13:59:43;5.17;;;2.40;;
50066;SDS011;35952;52.524;13.340;2023-04-12T14:02:08;3.90;;;2.33;;
50066;SDS011;35952;52.524;13.340;2023-04-12T14:04:34;10.10;;;5.03;;
50066;SDS011;35952;52.524;13.340;2023-04-12T14:06:59;4.07;;;3.23;;
50066;SDS011;35952;52.524;13.340;2023-04-12T14:09:26;2.97;;;2.43;;
50066;SDS011;35952;52.524;13.340;2023-04-12T14:11:53;3.50;;;2.63;;
50066;SDS011;35952;52.524;13.340;2023-04-12T14:14:21;5.73;;;2.40;;
50066;SDS011;35952;52.524;13.340;2023-04-12T14:16:51;5.27;;;2.77;;
50066;SDS011;35952;52.524;13.340;2023-04-12T14:19:21;2.30;;;2.10;;
50066;SDS011;35952;52.524;13.340;2023-04-12T14:21:47;2.53;;;2.30;;
50066;SDS011;35952;52.524;13.340;2023-04-12T14:24:14;4.20;;;2.87;;
50066;SDS011;35952;52.524;13.340;2023-04-12T14:26:40;3.10;;;2.80;;
50066;SDS011;35952;52.524;13.340;2023-04-12T14:29:05;5.70;;;2.47;;
50066;SDS011;35952;52.524;13.340;2023-04-12T14:31:31;8.83;;;3.93;;
50066;SDS011;35952;52.524;13.340;2023-04-12T14:33:58;5.90;;;2.60;;
50066;SDS011;35952;52.524;13.340;2023-04-12T14:36:24;3.83;;;2.90;;
50066;SDS011;35952;52.524;13.340;2023-04-12T14:38:51;5.70;;;3.03;;
50066;SDS011;35952;52.524;13.340;2023-04-12T14:41:17;5.77;;;2.87;;
50066;SDS011;35952;52.524;13.340;2023-04-12T14:43:43;6.07;;;3.53;;
50066;SDS011;35952;52.524;13.340;2023-04-12T14:46:09;2.90;;;2.57;;
50066;SDS011;35952;52.524;13.340;2023-04-12T14:48:35;3.67;;;3.30;;
50066;SDS011;35952;52.524;13.340;2023-04-12T14:51:01;4.03;;;2.10;;
50066;SDS011;35952;52.524;13.340;2023-04-12T14:53:27;6.30;;;2.30;;
50066;SDS011;35952;52.524;13.340;2023-04-12T14:55:54;3.80;;;2.53;;
50066;SDS011;35952;52.524;13.340;2023-04-12T14:58:19;3.20;;;2.33;;